createdAt,value
2019-05-17T00:04:56.384Z,94.42
2019-05-17T00:07:27.256Z,94.62
2019-05-17T00:09:57.140Z,94.72
2019-05-17T00:17:57.105Z,92.92
2019-05-17T00:20:26.701Z,93.58
2019-05-17T00:22:57.392Z,94.24
2019-05-17T00:25:27.493Z,94.42
2019-05-17T00:27:58.247Z,94.54
2019-05-17T00:30:26.928Z,94.95
2019-05-17T00:33:16.786Z,95.07
2019-05-17T00:35:46.912Z,94.63
2019-05-17T00:38:16.941Z,94.79
2019-05-17T00:40:47.000Z,95.15
2019-05-17T00:43:16.907Z,95.24
2019-05-17T00:45:47.566Z,95.37
2019-05-17T00:48:17.318Z,95.63
2019-05-17T00:50:53.359Z,95.45
2019-05-17T00:53:18.306Z,95.08
2019-05-17T00:55:47.650Z,95.16
2019-05-17T00:58:17.478Z,95.20
2019-05-17T01:01:08.409Z,95.32
2019-05-17T01:03:37.776Z,94.64
2019-05-17T01:12:02.132Z,93.96
2019-05-17T01:14:30.842Z,93.74
2019-05-17T01:16:59.486Z,94.32
2019-05-17T01:19:28.692Z,94.61
2019-05-17T01:21:57.796Z,94.77
2019-05-17T01:24:27.412Z,94.96
2019-05-17T01:26:57.502Z,94.97
2019-05-17T01:29:27.610Z,94.66
2019-05-17T01:31:57.128Z,95.18
2019-05-17T01:34:46.945Z,95.26
2019-05-17T01:37:36.953Z,95.91
2019-05-17T01:40:46.373Z,95.80
2019-05-17T01:45:52.631Z,95.14
2019-05-17T01:50:57.926Z,95.12
2019-05-17T01:53:27.137Z,94.88
2019-05-17T01:55:57.735Z,95.52
2019-05-17T01:58:27.100Z,95.92
2019-05-17T02:04:06.652Z,96.44
2019-05-17T02:06:36.645Z,96.65
2019-05-17T02:09:47.712Z,96.63
2019-05-17T02:12:17.412Z,96.02
2019-05-17T02:15:07.059Z,96.17
2019-05-17T02:17:58.162Z,96.15
2019-05-17T02:20:27.622Z,96.19
2019-05-17T02:22:57.059Z,96.84
2019-05-17T02:25:27.270Z,96.81
2019-05-17T02:27:56.620Z,97.10
2019-05-17T02:30:25.318Z,97.56
2019-05-17T02:33:33.958Z,97.15
2019-05-17T02:36:03.062Z,96.90
2019-05-17T02:38:33.706Z,97.26
2019-05-17T02:43:37.361Z,98.13
2019-05-17T02:46:06.768Z,97.99
2019-05-17T02:48:35.462Z,98.21
2019-05-17T02:51:04.265Z,98.36
2019-05-17T02:53:33.684Z,98.28
2019-05-17T02:56:03.586Z,98.33
2019-05-17T02:58:33.635Z,98.46
2019-05-17T03:01:03.655Z,98.79
2019-05-17T03:03:33.349Z,99.29
2019-05-17T03:06:03.211Z,98.97
2019-05-17T03:08:34.301Z,99.24
2019-05-17T03:11:43.794Z,98.52
2019-05-17T03:14:13.070Z,98.96
2019-05-17T03:16:43.377Z,99.26
2019-05-17T03:19:33.009Z,99.73
2019-05-17T03:22:07.470Z,99.82
2019-05-17T03:24:34.510Z,99.16
2019-05-17T03:27:03.821Z,99.40
2019-05-17T03:29:33.663Z,99.66
2019-05-17T03:32:08.353Z,99.63
2019-05-17T03:34:37.022Z,99.45
2019-05-17T03:37:07.327Z,99.46
2019-05-17T03:39:36.638Z,99.73
2019-05-17T03:42:06.084Z,100.00
2019-05-17T03:44:35.391Z,100.00
2019-05-17T03:47:44.880Z,100.00
2019-05-17T03:50:15.340Z,99.69
2019-05-17T03:52:45.003Z,100.00
2019-05-17T03:58:12.520Z,100.00
2019-05-17T04:00:42.835Z,100.00
2019-05-17T04:03:34.666Z,100.00
2019-05-17T04:06:03.871Z,100.00
2019-05-17T04:08:52.750Z,100.00
2019-05-17T04:11:31.173Z,100.00
2019-05-17T04:13:53.692Z,99.68
2019-05-17T04:16:23.835Z,99.78
2019-05-17T04:18:53.608Z,99.30
2019-05-17T04:21:24.147Z,98.76
2019-05-17T04:23:53.906Z,98.57
2019-05-17T04:26:23.968Z,98.87
2019-05-17T04:29:13.945Z,98.97
2019-05-17T04:31:43.713Z,99.53
2019-05-17T04:37:04.290Z,99.65
2019-05-17T04:39:33.366Z,99.26
2019-05-17T04:44:36.367Z,98.51
2019-05-17T04:47:05.324Z,98.25
2019-05-17T04:49:34.327Z,98.01
2019-05-17T04:52:03.751Z,98.01
2019-05-17T04:54:53.693Z,98.28
2019-05-17T04:57:43.720Z,98.54
2019-05-17T05:00:34.219Z,98.18
2019-05-17T05:03:43.411Z,97.20
2019-05-17T05:06:13.396Z,97.46
2019-05-17T05:12:33.620Z,97.25
2019-05-17T05:15:03.478Z,96.67
2019-05-17T05:17:33.433Z,96.62
2019-05-17T05:20:02.738Z,95.70
2019-05-17T05:22:33.030Z,95.38
2019-05-17T05:25:22.021Z,95.55
2019-05-17T05:27:51.658Z,95.59
2019-05-17T05:30:22.552Z,94.35
2019-05-17T05:32:52.461Z,93.59
2019-05-17T05:35:22.450Z,93.38
2019-05-17T05:38:32.254Z,93.60
2019-05-17T05:41:02.298Z,93.60
2019-05-17T05:43:32.757Z,92.73
2019-05-17T05:46:02.515Z,92.81
2019-05-17T05:48:32.621Z,92.37
2019-05-17T05:51:04.146Z,91.25
2019-05-17T05:53:32.666Z,91.02
2019-05-17T05:56:03.570Z,90.71
2019-05-17T05:58:33.153Z,90.76
2019-05-17T06:01:02.572Z,88.51
2019-05-17T06:03:32.320Z,88.77
2019-05-17T06:06:01.809Z,88.19
2019-05-17T06:08:32.269Z,87.95
2019-05-17T06:11:02.316Z,87.32
2019-05-17T06:14:12.319Z,87.72
2019-05-17T06:16:42.643Z,86.37
2019-05-17T06:19:12.544Z,86.83
2019-05-17T06:21:42.723Z,84.83
2019-05-17T06:24:11.996Z,84.60
2019-05-17T06:26:42.271Z,84.26
2019-05-17T06:29:12.343Z,85.26
2019-05-17T06:31:43.358Z,83.81
2019-05-17T06:34:12.214Z,82.91
2019-05-17T06:36:42.381Z,83.49
2019-05-17T06:39:11.794Z,83.03
2019-05-17T06:41:42.051Z,82.65
2019-05-17T06:44:12.371Z,81.82
2019-05-17T06:46:42.461Z,81.21
2019-05-17T06:49:11.741Z,78.48
2019-05-17T06:51:42.640Z,72.87
2019-05-17T06:54:12.153Z,65.08
2019-05-17T06:56:42.279Z,58.24
2019-05-17T06:59:10.892Z,55.19
2019-05-17T07:01:41.020Z,48.55
2019-05-17T07:04:30.004Z,47.47
2019-05-17T07:07:20.715Z,47.04
2019-05-17T07:09:49.689Z,43.04
2019-05-17T07:12:20.226Z,42.76
2019-05-17T07:14:50.716Z,43.09
2019-05-17T07:17:20.241Z,42.89
2019-05-17T07:19:50.775Z,39.27
2019-05-17T07:22:21.259Z,38.79
2019-05-17T07:24:50.255Z,40.13
2019-05-17T07:27:19.955Z,40.48
2019-05-17T07:29:49.737Z,42.40
2019-05-17T07:32:19.568Z,43.99
2019-05-17T07:34:50.183Z,43.51
2019-05-17T07:37:19.587Z,42.85
2019-05-17T07:40:00.492Z,40.42
2019-05-17T07:42:19.624Z,41.23
2019-05-17T07:44:49.818Z,41.38
2019-05-17T07:47:20.308Z,40.62
2019-05-17T07:49:49.471Z,37.35
2019-05-17T07:52:20.619Z,38.93
2019-05-17T07:54:50.851Z,37.20
2019-05-17T07:57:20.734Z,39.66
2019-05-17T07:59:50.863Z,42.21
2019-05-17T08:02:20.713Z,39.93
2019-05-17T08:04:50.144Z,43.46
2019-05-17T08:07:19.813Z,41.87
2019-05-17T08:09:50.480Z,42.98
2019-05-17T08:12:19.946Z,42.53
2019-05-17T08:14:50.220Z,41.12
2019-05-17T08:17:19.898Z,40.64
2019-05-17T08:20:10.769Z,40.51
2019-05-17T08:22:40.159Z,42.19
2019-05-17T08:25:30.459Z,45.05
2019-05-17T08:27:59.616Z,42.51
2019-05-17T08:31:09.914Z,42.55
2019-05-17T08:33:40.477Z,44.07
2019-05-17T08:36:09.316Z,47.61
2019-05-17T08:38:39.470Z,47.19
2019-05-17T08:41:10.347Z,47.65
2019-05-17T08:43:46.132Z,47.71
2019-05-17T08:46:10.590Z,46.42
2019-05-17T08:48:40.141Z,48.50
2019-05-17T08:51:10.827Z,48.78
2019-05-17T08:53:40.057Z,48.87
2019-05-17T08:56:09.938Z,51.11
2019-05-17T08:58:40.318Z,48.34
2019-05-17T09:01:11.131Z,49.37
2019-05-17T09:03:41.281Z,53.21
2019-05-17T09:06:12.355Z,51.72
2019-05-17T09:08:40.697Z,50.00
2019-05-17T09:11:09.876Z,48.42
2019-05-17T09:13:43.916Z,47.91
2019-05-17T09:16:21.809Z,48.92
2019-05-17T09:18:50.482Z,47.96
2019-05-17T09:21:59.842Z,45.35
2019-05-17T09:24:30.041Z,46.73
2019-05-17T09:26:59.946Z,49.15
2019-05-17T09:29:30.060Z,50.73
2019-05-17T09:31:59.925Z,47.07
2019-05-17T09:34:30.023Z,49.18
2019-05-17T09:37:00.300Z,49.29
2019-05-17T09:39:29.651Z,47.43
2019-05-17T09:41:59.574Z,46.88
2019-05-17T09:44:29.878Z,45.61
2019-05-17T09:46:59.569Z,46.91
2019-05-17T09:49:29.957Z,44.35
2019-05-17T09:52:00.229Z,49.75
2019-05-17T09:54:41.594Z,44.79
2019-05-17T09:57:00.602Z,47.00
2019-05-17T09:59:29.800Z,44.84
2019-05-17T10:02:00.107Z,45.84
2019-05-17T10:04:30.421Z,44.05
2019-05-17T10:07:00.564Z,45.74
2019-05-17T10:09:29.126Z,45.85
2019-05-17T10:11:59.883Z,46.81
2019-05-17T10:14:30.804Z,45.49
2019-05-17T10:17:00.355Z,42.69
2019-05-17T10:19:29.409Z,43.97
2019-05-17T10:22:20.062Z,45.75
2019-05-17T10:24:48.970Z,43.38
2019-05-17T10:27:19.509Z,43.76
2019-05-17T10:29:50.045Z,46.68
2019-05-17T10:32:20.518Z,44.45
2019-05-17T10:34:49.539Z,44.47
2019-05-17T10:37:59.608Z,46.02
2019-05-17T10:40:29.866Z,46.01
2019-05-17T10:43:00.773Z,44.84
2019-05-17T10:45:49.518Z,45.15
2019-05-17T10:48:21.000Z,44.64
2019-05-17T10:50:49.656Z,45.21
2019-05-17T10:53:20.422Z,42.17
2019-05-17T10:55:49.824Z,44.46
2019-05-17T10:58:21.288Z,44.58
2019-05-17T11:00:50.285Z,43.62
2019-05-17T11:03:20.503Z,43.78
2019-05-17T11:05:50.230Z,44.58
2019-05-17T11:08:19.823Z,42.31
2019-05-17T11:10:50.309Z,40.96
2019-05-17T11:13:20.249Z,42.06
2019-05-17T11:15:48.920Z,41.83
2019-05-17T11:18:17.534Z,41.87
2019-05-17T11:21:25.976Z,41.19
2019-05-17T11:23:54.555Z,40.34
2019-05-17T11:26:23.239Z,42.68
2019-05-17T11:28:51.875Z,41.89
2019-05-17T11:31:20.560Z,40.54
2019-05-17T11:33:49.182Z,41.33
2019-05-17T11:36:17.805Z,40.88
2019-05-17T11:38:46.386Z,40.96
2019-05-17T11:41:20.946Z,40.67
2019-05-17T11:43:45.489Z,37.44
2019-05-17T11:46:14.159Z,39.04
2019-05-17T11:48:42.826Z,39.65
2019-05-17T11:51:11.460Z,39.21
2019-05-17T11:53:40.074Z,39.03
2019-05-17T11:56:08.697Z,37.44
2019-05-17T11:58:37.345Z,39.48
2019-05-17T12:01:06.018Z,40.92
2019-05-17T12:03:34.779Z,39.31
2019-05-17T12:06:03.466Z,39.04
2019-05-17T12:08:32.108Z,40.31
2019-05-17T12:11:00.812Z,39.80
2019-05-17T12:13:29.486Z,39.96
2019-05-17T12:15:58.114Z,38.10
2019-05-17T12:18:26.793Z,40.16
2019-05-17T12:20:55.481Z,38.72
2019-05-17T12:23:24.068Z,38.35
2019-05-17T12:25:52.745Z,36.55
2019-05-17T12:28:21.424Z,36.11
2019-05-17T12:30:50.069Z,36.50
2019-05-17T12:33:18.723Z,35.30
2019-05-17T12:35:47.411Z,38.59
2019-05-17T12:38:35.309Z,39.03
2019-05-17T12:41:04.003Z,37.56
2019-05-17T12:43:32.679Z,34.97
2019-05-17T12:46:01.886Z,36.28
2019-05-17T12:48:31.729Z,37.41
2019-05-17T12:51:00.420Z,35.21
2019-05-17T12:53:29.164Z,33.75
2019-05-17T12:55:57.750Z,34.05
2019-05-17T12:58:26.426Z,33.09
2019-05-17T13:00:55.061Z,34.29
2019-05-17T13:03:23.678Z,34.49
2019-05-17T13:05:52.326Z,33.75
2019-05-17T13:08:20.961Z,35.70
2019-05-17T13:10:49.726Z,37.70
2019-05-17T13:13:38.077Z,35.02
2019-05-17T13:16:26.467Z,35.92
2019-05-17T13:18:55.118Z,37.85
2019-05-17T13:21:23.874Z,34.94
2019-05-17T13:23:52.546Z,32.60
2019-05-17T13:26:21.245Z,34.56
2019-05-17T13:28:49.863Z,33.74
2019-05-17T13:31:18.548Z,34.07
2019-05-17T13:33:47.152Z,33.32
2019-05-17T13:36:16.070Z,32.95
2019-05-17T13:38:44.741Z,32.45
2019-05-17T13:41:13.704Z,30.13
2019-05-17T13:43:42.315Z,31.70
2019-05-17T13:46:11.033Z,31.37
2019-05-17T13:48:39.648Z,29.79
2019-05-17T13:51:27.573Z,30.50
2019-05-17T13:53:56.203Z,29.00
2019-05-17T13:56:24.899Z,31.34
2019-05-17T13:58:53.542Z,32.30
2019-05-17T14:01:22.428Z,29.25
2019-05-17T14:03:51.085Z,30.22
2019-05-17T14:06:19.757Z,31.07
2019-05-17T14:08:48.347Z,30.18
2019-05-17T14:11:17.072Z,29.71
2019-05-17T14:13:45.643Z,30.40
2019-05-17T14:16:14.317Z,32.91
2019-05-17T14:18:43.016Z,33.63
2019-05-17T14:21:11.660Z,33.96
2019-05-17T14:23:40.271Z,33.88
2019-05-17T14:26:08.928Z,33.88
2019-05-17T14:28:37.624Z,34.50
2019-05-17T14:31:06.254Z,35.25
2019-05-17T14:33:35.182Z,34.19
2019-05-17T14:36:03.804Z,36.49
2019-05-17T14:38:32.535Z,35.88
2019-05-17T14:41:20.304Z,36.63
2019-05-17T14:43:48.923Z,37.53
2019-05-17T14:46:17.566Z,38.74
2019-05-17T14:48:46.172Z,37.15
2019-05-17T14:51:14.844Z,38.11
2019-05-17T14:53:43.494Z,38.32
2019-05-17T14:56:12.104Z,38.87
2019-05-17T14:58:40.690Z,37.35
2019-05-17T15:01:09.363Z,38.18
2019-05-17T15:03:37.996Z,36.99
2019-05-17T15:06:06.617Z,37.33
2019-05-17T15:09:15.075Z,38.16
2019-05-17T15:11:43.983Z,36.11
2019-05-17T15:14:14.117Z,35.88
2019-05-17T15:16:42.790Z,36.16
2019-05-17T15:19:11.528Z,36.21
2019-05-17T15:21:40.145Z,36.63
2019-05-17T15:24:08.788Z,36.08
2019-05-17T15:26:37.431Z,35.34
2019-05-17T15:29:06.216Z,36.17
2019-05-17T15:32:14.734Z,36.14
2019-05-17T15:34:43.499Z,34.48
2019-05-17T15:37:12.215Z,34.30
2019-05-17T15:39:40.892Z,36.23
2019-05-17T15:42:09.555Z,34.07
2019-05-17T15:44:38.109Z,34.12
2019-05-17T15:47:06.787Z,35.30
2019-05-17T15:49:35.388Z,34.08
2019-05-17T15:52:04.140Z,33.07
2019-05-17T15:54:32.769Z,32.52
2019-05-17T15:57:01.485Z,33.88
2019-05-17T15:59:30.165Z,33.71
2019-05-17T16:02:18.133Z,34.61
2019-05-17T16:04:46.753Z,36.68
2019-05-17T16:07:15.449Z,35.50
2019-05-17T16:09:44.008Z,37.43
2019-05-17T16:12:12.707Z,36.51
2019-05-17T16:14:41.361Z,36.33
2019-05-17T16:17:10.029Z,35.66
2019-05-17T16:19:38.637Z,36.51
2019-05-17T16:22:07.280Z,36.66
2019-05-17T16:24:35.879Z,37.18
2019-05-17T16:27:04.605Z,37.39
2019-05-17T16:29:33.612Z,37.32
2019-05-17T16:32:02.259Z,38.83
2019-05-17T16:34:30.981Z,39.22
2019-05-17T16:36:59.625Z,39.14
2019-05-17T16:39:28.317Z,39.48
2019-05-17T16:41:57.076Z,39.40
2019-05-17T16:44:25.856Z,39.68
2019-05-17T16:46:54.536Z,39.97
2019-05-17T16:49:23.205Z,40.41
2019-05-17T16:51:51.866Z,41.66
2019-05-17T16:54:20.631Z,44.64
2019-05-17T16:56:49.332Z,48.31
2019-05-17T16:59:17.977Z,49.91
2019-05-17T17:02:06.080Z,51.73
2019-05-17T17:04:34.719Z,52.47
2019-05-17T17:07:03.327Z,51.84
2019-05-17T17:09:31.949Z,54.10
2019-05-17T17:12:00.633Z,55.85
2019-05-17T17:14:29.211Z,55.76
2019-05-17T17:16:57.886Z,56.59
2019-05-17T17:19:26.581Z,56.22
2019-05-17T17:21:55.185Z,56.71
2019-05-17T17:24:23.815Z,57.46
2019-05-17T17:26:52.529Z,59.05
2019-05-17T17:29:21.152Z,58.77
2019-05-17T17:31:49.858Z,59.88
2019-05-17T17:34:18.543Z,59.43
2019-05-17T17:36:47.151Z,59.98
2019-05-17T17:39:15.837Z,59.83
2019-05-17T17:41:44.478Z,59.21
2019-05-17T17:44:13.087Z,60.10
2019-05-17T17:46:41.713Z,60.08
2019-05-17T17:49:10.408Z,59.70
2019-05-17T17:51:39.038Z,61.57
2019-05-17T17:54:07.724Z,60.71
2019-05-17T17:56:36.423Z,60.28
2019-05-17T17:59:05.133Z,59.11
2019-05-17T18:01:33.710Z,60.09
2019-05-17T18:04:02.370Z,60.40
2019-05-17T18:06:31.013Z,58.95
2019-05-17T18:08:59.721Z,59.54
2019-05-17T18:11:28.347Z,59.76
2019-05-17T18:13:57.055Z,58.43
2019-05-17T18:16:25.657Z,58.86
2019-05-17T18:18:54.353Z,58.44
2019-05-17T18:21:23.039Z,60.13
2019-05-17T18:23:51.683Z,60.27
2019-05-17T18:26:20.372Z,60.30
2019-05-17T18:28:49.075Z,60.12
2019-05-17T18:31:17.810Z,60.78
2019-05-17T18:33:46.387Z,61.23
2019-05-17T18:36:15.081Z,61.06
2019-05-17T18:39:23.486Z,61.41
2019-05-17T18:41:54.753Z,62.61
2019-05-17T18:44:27.740Z,62.39
2019-05-17T18:46:53.029Z,63.41
2019-05-17T18:49:21.637Z,65.08
2019-05-17T18:51:50.295Z,64.19
2019-05-17T18:54:58.753Z,65.75
2019-05-17T18:57:27.405Z,65.21
2019-05-17T18:59:56.084Z,61.69
2019-05-17T19:02:24.730Z,62.57
2019-05-17T19:04:53.412Z,64.43
2019-05-17T19:07:22.026Z,64.49
2019-05-17T19:09:50.668Z,65.44
2019-05-17T19:12:19.255Z,65.95
2019-05-17T19:14:47.923Z,62.81
2019-05-17T19:17:16.574Z,63.21
2019-05-17T19:19:45.191Z,63.77
2019-05-17T19:22:13.936Z,65.21
2019-05-17T19:24:42.591Z,63.87
2019-05-17T19:27:11.320Z,63.70
2019-05-17T19:29:43.114Z,64.30
2019-05-17T19:32:10.550Z,64.08
2019-05-17T19:34:39.115Z,65.98
2019-05-17T19:37:07.755Z,67.05
2019-05-17T19:39:36.432Z,68.59
2019-05-17T19:42:05.115Z,68.81
2019-05-17T19:44:40.918Z,68.80
2019-05-17T19:47:09.525Z,69.38
2019-05-17T19:49:38.148Z,69.76
2019-05-17T19:52:06.778Z,69.96
2019-05-17T19:54:35.422Z,69.23
2019-05-17T19:59:58.676Z,69.37
2019-05-17T20:02:27.242Z,69.13
2019-05-17T20:04:55.872Z,67.91
2019-05-17T20:07:24.536Z,69.05
2019-05-17T20:09:53.219Z,71.18
2019-05-17T20:12:21.874Z,70.63
2019-05-17T20:14:50.363Z,69.98
2019-05-17T20:17:18.989Z,70.74
2019-05-17T20:19:47.628Z,70.99
2019-05-17T20:22:16.377Z,72.62
2019-05-17T20:24:45.025Z,72.11
2019-05-17T20:27:13.668Z,72.68
2019-05-17T20:29:42.288Z,72.78
2019-05-17T20:32:10.930Z,74.19
2019-05-17T20:34:39.718Z,74.76
2019-05-17T20:37:08.359Z,74.96
2019-05-17T20:39:36.946Z,75.50
2019-05-17T20:42:05.623Z,75.46
2019-05-17T20:44:34.271Z,75.15
2019-05-17T20:47:02.961Z,75.12
2019-05-17T20:49:31.490Z,75.15
2019-05-17T20:52:00.076Z,74.90
2019-05-17T20:54:28.709Z,74.17
2019-05-17T20:56:57.475Z,74.13
2019-05-17T20:59:26.126Z,74.44
2019-05-17T21:01:54.809Z,74.55
2019-05-17T21:04:23.512Z,74.03
2019-05-17T21:06:52.676Z,74.03
2019-05-17T21:09:21.221Z,73.15
2019-05-17T21:11:49.928Z,73.31
2019-05-17T21:14:18.576Z,73.07
2019-05-17T21:16:47.108Z,73.11
2019-05-17T21:19:15.765Z,72.48
2019-05-17T21:21:44.435Z,71.42
2019-05-17T21:24:12.941Z,72.39
2019-05-17T21:26:41.569Z,73.31
2019-05-17T21:29:10.183Z,73.52
2019-05-17T21:31:38.812Z,74.35
2019-05-17T21:34:07.447Z,75.80
2019-05-17T21:36:36.127Z,75.47
2019-05-17T21:39:44.549Z,75.38
2019-05-17T21:42:13.160Z,75.72
2019-05-17T21:44:41.839Z,74.68
2019-05-17T21:47:30.035Z,75.27
2019-05-17T21:49:58.602Z,75.93
2019-05-17T21:52:27.269Z,76.19
2019-05-17T21:54:55.986Z,75.55
2019-05-17T21:57:24.629Z,75.25
2019-05-17T21:59:53.314Z,74.75
2019-05-17T22:02:21.964Z,75.19
2019-05-17T22:04:50.642Z,75.36
2019-05-17T22:07:19.316Z,75.72
2019-05-17T22:10:07.229Z,76.28
2019-05-17T22:12:35.899Z,76.69
2019-05-17T22:15:44.386Z,76.67
2019-05-17T22:18:12.952Z,77.05
2019-05-17T22:20:41.643Z,77.00
2019-05-17T22:23:10.521Z,76.89
2019-05-17T22:25:39.080Z,77.62
2019-05-17T22:28:07.777Z,77.03
2019-05-17T22:30:36.410Z,76.70
2019-05-17T22:33:05.107Z,77.17
2019-05-17T22:35:33.767Z,76.39
2019-05-17T22:38:02.372Z,77.46
2019-05-17T22:40:31.004Z,77.87
2019-05-17T22:42:59.560Z,78.63
2019-05-17T22:45:28.223Z,78.59
2019-05-17T22:47:56.810Z,79.39
2019-05-17T22:50:25.382Z,79.51
2019-05-17T22:52:53.990Z,79.39
2019-05-17T22:55:22.555Z,78.50
2019-05-17T22:57:51.243Z,79.05
2019-05-17T23:00:19.869Z,78.79
2019-05-17T23:02:48.554Z,78.05
2019-05-17T23:05:24.777Z,77.39
2019-05-17T23:08:27.428Z,77.30
2019-05-17T23:10:56.174Z,78.21
2019-05-17T23:13:25.063Z,77.68
2019-05-17T23:16:12.832Z,78.21
2019-05-17T23:21:17.148Z,80.52
2019-05-17T23:23:45.960Z,80.73
2019-05-17T23:26:14.467Z,80.63
2019-05-17T23:28:43.012Z,81.05
2019-05-17T23:31:11.762Z,81.21
2019-05-17T23:33:40.306Z,80.99
2019-05-17T23:36:08.955Z,80.84
2019-05-17T23:38:37.568Z,81.24
2019-05-17T23:41:06.154Z,81.11
2019-05-17T23:43:34.673Z,81.67
2019-05-17T23:46:03.332Z,82.55
2019-05-17T23:48:31.995Z,82.55
2019-05-17T23:51:00.612Z,82.64
2019-05-17T23:53:29.199Z,82.32
2019-05-17T23:55:57.874Z,81.41
2019-05-17T23:58:26.803Z,81.85
